createdAt,value
2022-09-05T00:00:11.830Z,99.90
2022-09-05T00:03:01.055Z,99.90
2022-09-05T00:06:02.217Z,99.90
2022-09-05T00:08:51.141Z,99.90
2022-09-05T00:11:45.608Z,99.90
2022-09-05T00:14:34.469Z,99.90
2022-09-05T00:19:51.655Z,99.90
2022-09-05T00:24:26.449Z,99.90
2022-09-05T00:24:27.352Z,99.90
2022-09-05T00:26:54.089Z,99.90
2022-09-05T00:29:39.667Z,99.90
2022-09-05T00:32:39.310Z,99.90
2022-09-05T00:35:28.662Z,99.90
2022-09-05T00:37:57.091Z,99.90
2022-09-05T00:40:32.395Z,99.90
2022-09-05T00:43:04.912Z,99.90
2022-09-05T00:45:39.927Z,99.90
2022-09-05T00:48:28.568Z,99.90
2022-09-05T00:51:10.843Z,99.90
2022-09-05T00:54:02.690Z,99.90
2022-09-05T00:56:56.612Z,99.90
2022-09-05T00:59:59.094Z,99.90
2022-09-05T01:02:51.288Z,99.90
2022-09-05T01:05:58.085Z,99.90
2022-09-05T01:08:51.936Z,99.90
2022-09-05T01:11:45.618Z,99.90
2022-09-05T01:14:31.020Z,99.90
2022-09-05T01:17:12.857Z,99.90
2022-09-05T01:19:45.873Z,99.90
2022-09-05T01:22:57.402Z,99.90
2022-09-05T01:26:00.435Z,99.90
2022-09-05T01:29:17.390Z,99.90
2022-09-05T01:31:33.877Z,99.90
2022-09-05T01:34:29.639Z,99.90
2022-09-05T01:37:32.673Z,99.90
2022-09-05T01:40:26.346Z,99.90
2022-09-05T01:43:39.078Z,99.90
2022-09-05T01:46:24.842Z,99.90
2022-09-05T01:49:29.585Z,99.90
2022-09-05T01:52:18.410Z,99.90
2022-09-05T01:55:12.276Z,99.90
2022-09-05T01:57:51.967Z,99.90
2022-09-05T02:00:44.556Z,99.90
2022-09-05T02:03:34.044Z,99.90
2022-09-05T02:06:32.233Z,99.90
2022-09-05T02:09:04.936Z,99.90
2022-09-05T02:12:03.247Z,99.90
2022-09-05T02:14:56.760Z,99.90
2022-09-05T02:17:51.153Z,99.90
2022-09-05T02:20:25.783Z,99.90
2022-09-05T02:23:02.507Z,99.90
2022-09-05T02:26:01.258Z,99.90
2022-09-05T02:28:38.836Z,99.90
2022-09-05T02:31:19.460Z,99.90
2022-09-05T02:34:27.172Z,99.90
2022-09-05T02:37:16.518Z,99.90
2022-09-05T02:45:08.248Z,99.90
2022-09-05T02:45:19.649Z,99.90
2022-09-05T02:47:11.308Z,99.90
2022-09-05T02:51:01.212Z,99.90
2022-09-05T02:57:24.058Z,99.90
2022-09-05T02:57:38.162Z,99.90
2022-09-05T02:59:35.962Z,99.90
2022-09-05T03:02:26.242Z,99.90
2022-09-05T03:05:08.996Z,99.90
2022-09-05T03:08:08.293Z,99.90
2022-09-05T03:11:20.408Z,99.90
2022-09-05T03:14:20.752Z,99.90
2022-09-05T03:17:09.494Z,99.90
2022-09-05T03:19:46.324Z,99.90
2022-09-05T03:22:36.781Z,99.90
2022-09-05T03:25:39.111Z,99.90
2022-09-05T03:28:48.883Z,99.90
2022-09-05T03:31:22.378Z,99.90
2022-09-05T03:34:13.878Z,99.90
2022-09-05T03:37:10.876Z,99.90
2022-09-05T03:39:56.183Z,99.90
2022-09-05T03:42:36.377Z,99.90
2022-09-05T03:45:15.051Z,99.90
2022-09-05T03:47:48.214Z,99.90
2022-09-05T03:55:12.152Z,99.90
2022-09-05T03:57:22.793Z,99.90
2022-09-05T03:57:23.217Z,99.90
2022-09-05T03:59:55.783Z,99.90
2022-09-05T04:07:05.001Z,99.90
2022-09-05T04:08:18.449Z,99.90
2022-09-05T04:08:36.974Z,99.90
2022-09-05T04:11:13.917Z,99.90
2022-09-05T04:13:46.208Z,99.90
2022-09-05T04:16:22.280Z,99.90
2022-09-05T04:19:10.408Z,99.90
2022-09-05T04:21:45.592Z,99.90
2022-09-05T04:24:20.583Z,99.90
2022-09-05T04:27:27.989Z,99.90
2022-09-05T04:29:58.600Z,99.90
2022-09-05T04:32:54.172Z,99.90
2022-09-05T04:35:32.077Z,99.90
2022-09-05T04:38:34.962Z,99.90
2022-09-05T04:41:39.714Z,99.90
2022-09-05T04:44:27.096Z,99.90
2022-09-05T04:47:07.872Z,99.90
2022-09-05T04:49:44.318Z,99.90
2022-09-05T04:52:31.197Z,99.90
2022-09-05T04:55:27.566Z,99.90
2022-09-05T04:59:20.283Z,99.90
2022-09-05T05:06:04.142Z,99.90
2022-09-05T05:06:18.899Z,99.90
2022-09-05T05:07:20.276Z,99.90
2022-09-05T05:10:08.954Z,99.90
2022-09-05T05:18:00.789Z,99.90
2022-09-05T05:18:16.109Z,99.90
2022-09-05T05:18:57.855Z,99.90
2022-09-05T05:21:32.447Z,99.90
2022-09-05T05:24:15.592Z,99.90
2022-09-05T05:26:57.414Z,99.90
2022-09-05T05:29:29.918Z,99.90
2022-09-05T05:31:59.925Z,99.90
2022-09-05T05:34:34.901Z,99.90
2022-09-05T05:37:09.395Z,99.90
2022-09-05T05:39:39.680Z,99.90
2022-09-05T05:42:20.967Z,99.90
2022-09-05T05:44:54.558Z,99.90
2022-09-05T05:47:31.603Z,99.90
2022-09-05T05:50:11.518Z,99.90
2022-09-05T05:52:59.856Z,99.90
2022-09-05T05:55:53.503Z,99.90
2022-09-05T05:58:32.717Z,99.90
2022-09-05T06:01:38.401Z,99.90
2022-09-05T06:04:20.616Z,99.90
2022-09-05T06:06:50.322Z,99.90
2022-09-05T06:14:50.463Z,99.90
2022-09-05T06:14:58.128Z,99.90
2022-09-05T06:16:33.124Z,99.90
2022-09-05T06:19:25.462Z,99.90
2022-09-05T06:22:14.832Z,99.90
2022-09-05T06:25:20.490Z,99.90
2022-09-05T06:28:19.309Z,99.90
2022-09-05T06:31:28.885Z,99.90
2022-09-05T06:34:04.263Z,99.90
2022-09-05T06:37:24.088Z,99.90
2022-09-05T06:40:08.721Z,99.90
2022-09-05T06:42:57.166Z,99.90
2022-09-05T06:46:01.428Z,99.90
2022-09-05T06:48:58.639Z,99.90
2022-09-05T06:51:45.293Z,99.90
2022-09-05T06:54:38.471Z,99.90
2022-09-05T06:57:44.425Z,99.90
2022-09-05T07:00:25.139Z,99.90
2022-09-05T07:03:17.208Z,99.90
2022-09-05T07:06:09.027Z,99.90
2022-09-05T07:09:15.355Z,99.90
2022-09-05T07:12:08.248Z,99.90
2022-09-05T07:14:57.790Z,99.90
2022-09-05T07:18:09.435Z,99.90
2022-09-05T07:21:17.259Z,99.90
2022-09-05T07:24:09.831Z,99.90
2022-09-05T07:26:51.983Z,99.90
2022-09-05T07:29:29.762Z,99.90
2022-09-05T07:31:59.806Z,99.90
2022-09-05T07:34:31.855Z,99.90
2022-09-05T07:37:15.317Z,99.90
2022-09-05T07:40:04.025Z,99.90
2022-09-05T07:43:09.068Z,99.90
2022-09-05T07:45:46.510Z,99.90
2022-09-05T07:48:34.931Z,99.90
2022-09-05T07:57:00.084Z,99.90
2022-09-05T07:57:10.321Z,99.90
2022-09-05T07:57:22.302Z,99.90
2022-09-05T07:59:41.602Z,99.90
2022-09-05T08:02:11.832Z,99.90
2022-09-05T08:04:41.751Z,99.90
2022-09-05T08:07:47.402Z,99.90
2022-09-05T08:11:21.931Z,99.90
2022-09-05T08:13:50.404Z,99.90
2022-09-05T08:16:23.292Z,99.90
2022-09-05T08:19:08.714Z,99.90
2022-09-05T08:21:47.850Z,99.90
2022-09-05T08:24:36.676Z,99.90
2022-09-05T08:27:10.171Z,99.90
2022-09-05T08:30:24.991Z,99.90
2022-09-05T08:33:10.715Z,99.90
2022-09-05T08:35:47.322Z,99.90
2022-09-05T08:38:15.607Z,99.90
2022-09-05T08:41:25.971Z,99.90
2022-09-05T08:46:40.602Z,99.90
2022-09-05T08:47:24.755Z,99.90
2022-09-05T08:50:12.891Z,99.90
2022-09-05T08:52:59.285Z,99.90
2022-09-05T08:56:03.740Z,99.90
2022-09-05T08:58:36.348Z,99.90
2022-09-05T09:01:28.300Z,99.90
2022-09-05T09:05:00.800Z,99.90
2022-09-05T09:07:51.247Z,99.90
2022-09-05T09:10:34.846Z,99.90
2022-09-05T09:13:10.887Z,99.90
2022-09-05T09:16:06.391Z,99.90
2022-09-05T09:18:59.291Z,99.90
2022-09-05T09:21:35.585Z,99.90
2022-09-05T09:24:08.204Z,99.90
2022-09-05T09:26:51.486Z,99.90
2022-09-05T09:29:19.377Z,99.90
2022-09-05T09:32:11.032Z,99.90
2022-09-05T09:34:47.411Z,99.90
2022-09-05T09:37:53.402Z,99.90
2022-09-05T09:40:50.225Z,99.90
2022-09-05T09:43:53.246Z,99.90
2022-09-05T09:46:44.296Z,99.90
2022-09-05T09:49:41.739Z,99.90
2022-09-05T09:52:30.072Z,99.90
2022-09-05T09:54:56.695Z,99.90
2022-09-05T09:57:38.708Z,99.90
2022-09-05T10:00:21.124Z,99.90
2022-09-05T10:04:36.680Z,99.90
2022-09-05T10:10:52.847Z,99.90
2022-09-05T10:10:54.671Z,99.90
2022-09-05T10:12:24.014Z,99.90
2022-09-05T10:15:03.167Z,99.90
2022-09-05T10:17:46.686Z,99.90
2022-09-05T10:21:15.425Z,99.90
2022-09-05T10:23:53.788Z,99.90
2022-09-05T10:26:40.969Z,99.90
2022-09-05T10:29:36.804Z,97.30
2022-09-05T10:34:49.094Z,99.60
2022-09-05T10:35:21.002Z,98.80
2022-09-05T10:37:57.274Z,99.90
2022-09-05T10:40:27.097Z,99.10
2022-09-05T10:43:20.861Z,99.90
2022-09-05T10:46:01.236Z,98.20
2022-09-05T10:48:31.073Z,95.30
2022-09-05T10:51:26.943Z,94.70
2022-09-05T10:54:22.901Z,96.40
2022-09-05T10:57:11.663Z,97.60
2022-09-05T11:02:19.045Z,93.40
2022-09-05T11:02:56.452Z,98.20
2022-09-05T11:05:36.140Z,95.90
2022-09-05T11:08:05.818Z,95.20
2022-09-05T11:10:51.040Z,96.30
2022-09-05T11:13:21.583Z,97.30
2022-09-05T11:16:12.763Z,97.30
2022-09-05T11:18:59.416Z,95.20
2022-09-05T11:22:22.608Z,90.90
2022-09-05T11:25:03.059Z,94.40
2022-09-05T11:27:35.180Z,91.80
2022-09-05T11:30:28.448Z,92.00
2022-09-05T11:37:56.239Z,85.30
2022-09-05T11:39:53.125Z,90.20
2022-09-05T11:39:57.630Z,90.60
2022-09-05T11:42:27.567Z,83.30
2022-09-05T11:45:25.221Z,83.50
2022-09-05T11:48:07.559Z,90.50
2022-09-05T11:50:43.232Z,94.70
2022-09-05T11:53:50.847Z,90.50
2022-09-05T11:56:31.559Z,82.50
2022-09-05T11:59:33.549Z,84.90
2022-09-05T12:02:23.912Z,82.90
2022-09-05T12:05:50.430Z,81.20
2022-09-05T12:08:29.358Z,77.70
2022-09-05T12:11:08.553Z,78.80
2022-09-05T12:13:38.635Z,76.20
2022-09-05T12:16:26.796Z,71.80
2022-09-05T12:19:19.516Z,76.10
2022-09-05T12:22:33.256Z,77.40
2022-09-05T12:25:25.878Z,75.10
2022-09-05T12:29:25.973Z,78.10
2022-09-05T12:32:30.586Z,73.50
2022-09-05T12:36:07.543Z,73.90
2022-09-05T12:40:53.464Z,75.60
2022-09-05T12:41:33.378Z,76.80
2022-09-05T12:42:56.379Z,75.50
2022-09-05T12:45:39.415Z,79.10
2022-09-05T12:48:39.216Z,85.60
2022-09-05T12:51:46.138Z,82.00
2022-09-05T12:54:34.073Z,83.80
2022-09-05T13:02:14.667Z,85.20
2022-09-05T13:03:13.206Z,79.70
2022-09-05T13:03:27.628Z,87.20
2022-09-05T13:06:19.414Z,83.20
2022-09-05T13:08:59.519Z,82.50
2022-09-05T13:14:53.445Z,87.00
2022-09-05T13:14:55.294Z,84.20
2022-09-05T13:17:44.273Z,90.50
2022-09-05T13:20:17.476Z,88.20
2022-09-05T13:22:48.725Z,84.90
2022-09-05T13:25:26.969Z,84.70
2022-09-05T13:28:03.728Z,89.70
2022-09-05T13:31:30.377Z,90.10
2022-09-05T13:38:05.156Z,78.60
2022-09-05T13:38:14.441Z,86.00
2022-09-05T13:39:19.430Z,81.80
2022-09-05T13:42:03.732Z,79.00
2022-09-05T13:44:37.414Z,79.60
2022-09-05T13:47:29.621Z,77.30
2022-09-05T13:50:20.994Z,74.90
2022-09-05T13:53:15.218Z,66.90
2022-09-05T13:56:03.133Z,64.50
2022-09-05T13:58:41.591Z,58.70
2022-09-05T14:01:44.200Z,55.90
2022-09-05T14:05:08.430Z,55.60
2022-09-05T14:07:52.916Z,58.00
2022-09-05T14:10:22.311Z,49.20
2022-09-05T14:13:11.697Z,46.40
2022-09-05T14:15:52.254Z,45.60
2022-09-05T14:18:26.734Z,43.10
2022-09-05T14:21:16.460Z,43.20
2022-09-05T14:23:56.663Z,42.80
2022-09-05T14:26:45.377Z,44.60
2022-09-05T14:29:20.497Z,39.70
2022-09-05T14:37:37.384Z,39.60
2022-09-05T14:37:43.108Z,42.10
2022-09-05T14:38:15.188Z,41.80
2022-09-05T14:41:20.430Z,41.80
2022-09-05T14:43:57.117Z,42.20
2022-09-05T14:46:58.118Z,39.30
2022-09-05T14:49:34.517Z,38.80
2022-09-05T14:52:27.087Z,40.20
2022-09-05T15:02:43.202Z,39.50
2022-09-05T15:02:52.076Z,43.00
2022-09-05T15:07:26.379Z,46.70
2022-09-05T15:12:15.088Z,45.60
2022-09-05T15:13:05.514Z,45.60
2022-09-05T15:15:44.951Z,43.10
2022-09-05T15:18:26.357Z,42.40
2022-09-05T15:20:57.239Z,41.70
2022-09-05T15:23:26.070Z,44.30
2022-09-05T15:26:04.036Z,50.70
2022-09-05T15:28:38.929Z,48.00
2022-09-05T15:31:16.833Z,46.70
2022-09-05T15:33:44.396Z,47.30
2022-09-05T15:36:17.225Z,44.90
2022-09-05T15:38:55.499Z,42.90
2022-09-05T15:41:28.867Z,41.30
2022-09-05T15:44:20.310Z,41.70
2022-09-05T15:46:51.331Z,40.50
2022-09-05T15:49:33.634Z,41.00
2022-09-05T15:52:17.956Z,38.40
2022-09-05T15:54:52.376Z,39.10
2022-09-05T15:57:33.166Z,40.00
2022-09-05T16:00:09.735Z,42.40
2022-09-05T16:02:45.885Z,44.50
2022-09-05T16:10:33.694Z,47.40
2022-09-05T16:10:33.771Z,48.70
2022-09-05T16:12:09.221Z,50.40
2022-09-05T16:14:36.540Z,54.80
2022-09-05T16:23:18.801Z,56.10
2022-09-05T16:23:25.484Z,58.40
2022-09-05T16:23:42.736Z,56.70
2022-09-05T16:26:11.759Z,57.50
2022-09-05T16:28:55.387Z,57.60
2022-09-05T16:31:45.592Z,58.20
2022-09-05T16:34:45.464Z,58.50
2022-09-05T16:37:20.452Z,60.00
2022-09-05T16:40:03.176Z,62.90
2022-09-05T16:43:02.230Z,65.00
2022-09-05T16:45:51.759Z,66.10
2022-09-05T16:48:36.687Z,66.40
2022-09-05T16:51:36.393Z,67.80
2022-09-05T16:54:21.006Z,67.10
2022-09-05T16:56:58.274Z,67.50
2022-09-05T16:59:29.789Z,69.40
2022-09-05T17:02:11.765Z,70.60
2022-09-05T17:05:05.145Z,74.00
2022-09-05T17:08:05.766Z,74.60
2022-09-05T17:10:52.905Z,76.30
2022-09-05T17:13:49.955Z,79.50
2022-09-05T17:16:37.908Z,82.20
2022-09-05T17:19:22.269Z,84.90
2022-09-05T17:24:34.444Z,88.30
2022-09-05T17:29:20.997Z,90.20
2022-09-05T17:29:24.590Z,90.30
2022-09-05T17:31:48.836Z,91.70
2022-09-05T17:33:45.620Z,92.60
2022-09-05T17:36:22.307Z,92.90
2022-09-05T17:39:18.499Z,94.60
2022-09-05T17:42:03.080Z,97.40
2022-09-05T17:45:10.037Z,99.80
2022-09-05T17:47:55.612Z,99.90
2022-09-05T17:50:28.014Z,99.90
2022-09-05T17:53:26.488Z,99.90
2022-09-05T17:55:50.834Z,99.90
2022-09-05T17:58:49.507Z,99.90
2022-09-05T18:01:26.900Z,99.90
2022-09-05T18:04:17.539Z,99.90
2022-09-05T18:06:59.503Z,99.90
2022-09-05T18:09:39.964Z,99.90
2022-09-05T18:12:28.679Z,99.90
2022-09-05T18:15:11.455Z,99.90
2022-09-05T18:17:47.540Z,99.90
2022-09-05T18:20:17.288Z,99.90
2022-09-05T18:22:56.860Z,99.90
2022-09-05T18:25:47.418Z,99.90
2022-09-05T18:28:31.461Z,99.90
2022-09-05T18:31:18.572Z,99.90
2022-09-05T18:34:19.932Z,99.90
2022-09-05T18:36:50.361Z,99.90
2022-09-05T18:39:39.043Z,99.90
2022-09-05T18:42:33.118Z,99.90
2022-09-05T18:45:02.438Z,99.90
2022-09-05T18:47:50.993Z,99.90
2022-09-05T18:50:28.461Z,99.90
2022-09-05T18:53:09.410Z,99.90
2022-09-05T18:56:09.708Z,99.90
2022-09-05T18:58:51.784Z,99.90
2022-09-05T19:01:28.500Z,99.90
2022-09-05T19:04:00.042Z,99.90
2022-09-05T19:06:34.668Z,99.90
2022-09-05T19:09:09.564Z,99.90
2022-09-05T19:11:53.072Z,99.90
2022-09-05T19:14:49.335Z,99.90
2022-09-05T19:17:34.242Z,99.90
2022-09-05T19:20:32.486Z,99.90
2022-09-05T19:23:13.549Z,99.90
2022-09-05T19:25:46.770Z,99.90
2022-09-05T19:36:00.782Z,99.90
2022-09-05T19:36:58.522Z,99.90
2022-09-05T19:37:13.091Z,99.90
2022-09-05T19:37:28.994Z,99.90
2022-09-05T19:45:15.880Z,99.90
2022-09-05T19:47:38.383Z,99.90
2022-09-05T19:47:44.060Z,99.90
2022-09-05T19:48:34.519Z,99.90
2022-09-05T19:51:17.356Z,99.90
2022-09-05T19:53:56.551Z,99.90
2022-09-05T19:56:46.380Z,99.90
2022-09-05T19:59:33.828Z,99.90
2022-09-05T20:02:02.542Z,99.90
2022-09-05T20:04:44.054Z,99.90
2022-09-05T20:07:19.817Z,99.90
2022-09-05T20:09:51.535Z,99.90
2022-09-05T20:12:33.865Z,99.90
2022-09-05T20:15:27.833Z,99.90
2022-09-05T20:18:21.424Z,99.90
2022-09-05T20:20:52.746Z,99.90
2022-09-05T20:23:19.921Z,99.90
2022-09-05T20:25:48.168Z,99.90
2022-09-05T20:28:18.765Z,99.90
2022-09-05T20:30:52.779Z,99.90
2022-09-05T20:33:28.497Z,99.90
2022-09-05T20:43:08.394Z,99.90
2022-09-05T20:43:21.351Z,99.90
2022-09-05T20:43:21.594Z,99.90
2022-09-05T20:44:50.795Z,99.90
2022-09-05T20:52:17.638Z,99.90
2022-09-05T20:54:15.603Z,99.90
2022-09-05T20:54:27.561Z,99.90
2022-09-05T20:56:30.742Z,99.90
2022-09-05T20:59:01.299Z,99.90
2022-09-05T21:01:32.434Z,99.90
2022-09-05T21:04:00.618Z,99.90
2022-09-05T21:06:45.781Z,99.90
2022-09-05T21:09:24.468Z,99.90
2022-09-05T21:11:53.618Z,99.90
2022-09-05T21:14:22.525Z,99.90
2022-09-05T21:17:13.453Z,99.90
2022-09-05T21:19:53.178Z,99.90
2022-09-05T21:22:25.070Z,99.90
2022-09-05T21:25:24.572Z,99.90
2022-09-05T21:28:21.547Z,99.90
2022-09-05T21:30:48.433Z,99.90
2022-09-05T21:33:20.078Z,99.90
2022-09-05T21:36:01.962Z,99.90
2022-09-05T21:38:37.240Z,99.90
2022-09-05T21:41:05.109Z,99.90
2022-09-05T21:47:33.282Z,99.90
2022-09-05T21:47:46.739Z,99.90
2022-09-05T21:49:08.941Z,99.90
2022-09-05T21:51:37.506Z,99.90
2022-09-05T21:57:23.213Z,99.90
2022-09-05T21:59:24.480Z,99.90
2022-09-05T21:59:49.937Z,99.90
2022-09-05T22:02:17.996Z,99.90
2022-09-05T22:04:44.784Z,99.90
2022-09-05T22:07:32.523Z,99.90
2022-09-05T22:10:04.548Z,99.90
2022-09-05T22:12:36.201Z,99.90
2022-09-05T22:15:28.476Z,99.90
2022-09-05T22:18:16.856Z,99.90
2022-09-05T22:20:44.271Z,99.90
2022-09-05T22:23:11.539Z,99.90
2022-09-05T22:25:39.502Z,99.90
2022-09-05T22:28:15.890Z,99.90
2022-09-05T22:30:43.695Z,99.90
2022-09-05T22:33:12.254Z,99.90
2022-09-05T22:35:40.232Z,99.90
2022-09-05T22:38:23.984Z,99.90
2022-09-05T22:40:55.407Z,99.90
2022-09-05T22:43:25.285Z,99.90
2022-09-05T22:45:55.953Z,99.90
2022-09-05T22:48:23.209Z,99.90
2022-09-05T22:50:50.222Z,99.90
2022-09-05T22:53:17.403Z,99.90
2022-09-05T22:55:44.535Z,99.90
2022-09-05T22:58:13.628Z,99.90
2022-09-05T23:00:41.667Z,99.90
2022-09-05T23:03:08.693Z,99.90
2022-09-05T23:05:35.528Z,99.90
2022-09-05T23:08:04.143Z,99.90
2022-09-05T23:10:31.595Z,99.90
2022-09-05T23:12:59.207Z,99.90
2022-09-05T23:15:26.709Z,99.90
2022-09-05T23:18:00.061Z,99.90
2022-09-05T23:20:29.126Z,99.90
2022-09-05T23:22:56.928Z,99.90
2022-09-05T23:25:24.299Z,99.90
2022-09-05T23:27:51.165Z,99.90
2022-09-05T23:30:18.009Z,99.90
2022-09-05T23:32:46.539Z,99.90
2022-09-05T23:35:14.315Z,99.90
2022-09-05T23:37:43.536Z,99.90
2022-09-05T23:40:15.043Z,99.90
2022-09-05T23:42:41.781Z,99.90
2022-09-05T23:45:09.754Z,99.90
2022-09-05T23:47:36.907Z,99.90
2022-09-05T23:50:04.849Z,99.90
2022-09-05T23:52:31.841Z,99.90
2022-09-05T23:54:58.638Z,99.90
2022-09-05T23:57:25.928Z,99.90
2022-09-05T23:59:52.931Z,99.90
